createdAt,value
2022-11-05T00:01:02.326Z,34.25
2022-11-05T00:03:47.767Z,30.48
2022-11-05T00:06:34.740Z,29.85
2022-11-05T00:09:20.067Z,28.98
2022-11-05T00:12:05.454Z,34.55
2022-11-05T00:14:50.775Z,27.90
2022-11-05T00:17:17.375Z,28.98
2022-11-05T00:19:43.922Z,29.50
2022-11-05T00:22:29.070Z,29.08
2022-11-05T00:25:14.274Z,25.52
2022-11-05T00:27:41.143Z,27.98
2022-11-05T00:30:09.125Z,26.20
2022-11-05T00:32:35.710Z,26.52
2022-11-05T00:35:02.369Z,27.67
2022-11-05T00:37:29.795Z,30.40
2022-11-05T00:39:56.378Z,26.83
2022-11-05T00:42:41.547Z,27.55
2022-11-05T00:45:08.549Z,30.00
2022-11-05T00:47:53.692Z,23.50
2022-11-05T00:50:22.144Z,21.13
2022-11-05T00:52:55.995Z,28.35
2022-11-05T00:55:38.079Z,28.02
2022-11-05T00:58:10.344Z,29.23
2022-11-05T01:00:39.463Z,27.83
2022-11-05T01:03:12.437Z,29.60
2022-11-05T01:05:47.851Z,24.25
2022-11-05T01:08:16.440Z,23.90
2022-11-05T01:10:51.167Z,24.13
2022-11-05T01:13:23.950Z,31.42
2022-11-05T01:15:53.416Z,26.88
2022-11-05T01:18:21.238Z,28.10
2022-11-05T01:20:48.356Z,25.10
2022-11-05T01:23:15.698Z,23.85
2022-11-05T01:25:42.993Z,22.08
2022-11-05T01:28:10.041Z,26.85
2022-11-05T01:30:37.470Z,25.27
2022-11-05T01:33:04.287Z,24.85
2022-11-05T01:35:30.894Z,23.55
2022-11-05T01:37:57.536Z,28.02
2022-11-05T01:40:25.296Z,27.63
2022-11-05T01:42:51.909Z,26.20
2022-11-05T01:45:28.902Z,30.55
2022-11-05T01:48:11.079Z,29.60
2022-11-05T01:50:56.706Z,24.10
2022-11-05T01:53:29.169Z,24.23
2022-11-05T01:56:02.392Z,24.02
2022-11-05T01:58:34.599Z,21.47
2022-11-05T02:01:01.754Z,27.50
2022-11-05T02:03:28.721Z,22.08
2022-11-05T02:05:57.388Z,20.10
2022-11-05T02:08:36.561Z,21.08
2022-11-05T02:11:03.326Z,20.98
2022-11-05T02:13:29.966Z,26.65
2022-11-05T02:16:34.927Z,17.50
2022-11-05T02:19:38.930Z,18.30
2022-11-05T02:22:24.589Z,23.73
2022-11-05T02:24:56.910Z,19.25
2022-11-05T02:27:45.061Z,23.58
2022-11-05T02:30:38.843Z,21.50
2022-11-05T02:33:30.139Z,14.98
2022-11-05T02:36:05.504Z,19.17
2022-11-05T02:38:50.230Z,18.92
2022-11-05T02:41:54.064Z,19.85
2022-11-05T02:45:05.166Z,17.98
2022-11-05T02:47:47.441Z,14.27
2022-11-05T02:50:23.502Z,18.45
2022-11-05T02:53:30.169Z,20.50
2022-11-05T02:56:01.204Z,17.80
2022-11-05T02:58:28.854Z,21.13
2022-11-05T03:00:57.202Z,16.95
2022-11-05T03:03:29.262Z,19.88
2022-11-05T03:06:13.483Z,15.52
2022-11-05T03:09:12.109Z,21.40
2022-11-05T03:12:12.988Z,13.07
2022-11-05T03:15:10.162Z,19.52
2022-11-05T03:17:55.956Z,16.20
2022-11-05T03:20:31.892Z,19.75
2022-11-05T03:23:26.590Z,17.98
2022-11-05T03:26:22.197Z,13.13
2022-11-05T03:28:55.735Z,17.52
2022-11-05T03:31:23.241Z,22.40
2022-11-05T03:33:53.226Z,14.35
2022-11-05T03:36:26.631Z,9.50
2022-11-05T03:38:56.144Z,17.23
2022-11-05T03:41:25.183Z,14.25
2022-11-05T03:43:57.202Z,18.67
2022-11-05T03:46:32.349Z,17.38
2022-11-05T03:49:02.972Z,14.60
2022-11-05T03:51:43.085Z,16.05
2022-11-05T03:54:10.688Z,13.85
2022-11-05T03:57:14.855Z,15.00
2022-11-05T03:59:45.084Z,14.67
2022-11-05T04:02:14.595Z,22.10
2022-11-05T04:04:41.611Z,13.55
2022-11-05T04:07:28.708Z,14.13
2022-11-05T04:10:14.229Z,16.90
2022-11-05T04:12:59.609Z,10.63
2022-11-05T04:15:26.955Z,15.77
2022-11-05T04:17:53.950Z,15.32
2022-11-05T04:20:39.086Z,19.70
2022-11-05T04:23:26.047Z,17.13
2022-11-05T04:25:52.635Z,17.15
2022-11-05T04:28:19.268Z,14.15
2022-11-05T04:30:45.908Z,17.23
2022-11-05T04:33:17.140Z,16.48
2022-11-05T04:35:45.182Z,18.73
2022-11-05T04:38:14.816Z,21.65
2022-11-05T04:40:42.052Z,19.38
2022-11-05T04:43:14.882Z,17.65
2022-11-05T04:45:42.477Z,18.90
2022-11-05T04:48:09.373Z,19.52
2022-11-05T04:50:36.285Z,17.60
2022-11-05T04:53:03.103Z,16.38
2022-11-05T04:55:29.934Z,16.88
2022-11-05T04:57:56.527Z,22.20
2022-11-05T05:00:24.252Z,13.35
2022-11-05T05:02:51.008Z,16.23
2022-11-05T05:05:17.727Z,22.08
2022-11-05T05:07:44.430Z,17.88
2022-11-05T05:10:11.795Z,18.27
2022-11-05T05:12:38.527Z,22.20
2022-11-05T05:15:05.942Z,18.95
2022-11-05T05:17:32.591Z,18.80
2022-11-05T05:20:17.863Z,19.50
2022-11-05T05:22:50.759Z,22.15
2022-11-05T05:25:17.481Z,16.23
2022-11-05T05:27:44.059Z,17.60
2022-11-05T05:30:11.065Z,26.00
2022-11-05T05:32:37.758Z,21.50
2022-11-05T05:35:04.614Z,21.65
2022-11-05T05:37:31.229Z,24.17
2022-11-05T05:39:57.872Z,18.20
2022-11-05T05:42:24.500Z,20.33
2022-11-05T05:44:51.274Z,18.95
2022-11-05T05:47:17.840Z,28.42
2022-11-05T05:49:44.482Z,25.30
2022-11-05T05:52:11.051Z,17.75
2022-11-05T05:54:42.428Z,17.63
2022-11-05T05:57:09.752Z,24.52
2022-11-05T05:59:36.371Z,18.40
2022-11-05T06:02:03.142Z,23.58
2022-11-05T06:04:30.078Z,24.48
2022-11-05T06:06:56.661Z,26.63
2022-11-05T06:09:23.247Z,23.77
2022-11-05T06:11:49.998Z,20.45
2022-11-05T06:14:16.593Z,31.38
2022-11-05T06:16:43.189Z,26.05
2022-11-05T06:19:09.980Z,22.55
2022-11-05T06:21:36.644Z,22.95
2022-11-05T06:24:03.563Z,23.20
2022-11-05T06:26:30.592Z,31.83
2022-11-05T06:28:57.368Z,25.50
2022-11-05T06:31:24.304Z,23.52
2022-11-05T06:33:51.049Z,26.83
2022-11-05T06:36:19.190Z,28.30
2022-11-05T06:38:46.023Z,26.38
2022-11-05T06:41:12.719Z,21.15
2022-11-05T06:43:39.499Z,23.77
2022-11-05T06:46:06.690Z,27.58
2022-11-05T06:48:33.471Z,24.67
2022-11-05T06:51:00.127Z,20.48
2022-11-05T06:53:27.340Z,26.13
2022-11-05T06:55:53.959Z,24.73
2022-11-05T06:58:20.721Z,23.77
2022-11-05T07:00:47.664Z,17.20
2022-11-05T07:03:15.121Z,25.42
2022-11-05T07:05:46.448Z,19.60
2022-11-05T07:08:13.461Z,22.55
2022-11-05T07:10:40.030Z,18.95
2022-11-05T07:13:08.346Z,20.38
2022-11-05T07:15:35.904Z,24.95
2022-11-05T07:18:02.661Z,16.63
2022-11-05T07:20:33.567Z,24.05
2022-11-05T07:23:02.508Z,19.52
2022-11-05T07:25:31.078Z,25.98
2022-11-05T07:27:57.899Z,32.03
2022-11-05T07:30:24.969Z,24.25
2022-11-05T07:32:51.765Z,19.90
2022-11-05T07:35:18.404Z,24.65
2022-11-05T07:37:55.399Z,20.42
2022-11-05T07:40:23.809Z,21.15
2022-11-05T07:42:52.717Z,20.67
2022-11-05T07:45:19.890Z,28.35
2022-11-05T07:47:48.419Z,17.77
2022-11-05T07:50:19.895Z,24.30
2022-11-05T07:52:47.971Z,21.38
2022-11-05T07:55:15.704Z,18.05
2022-11-05T07:57:43.931Z,22.83
2022-11-05T08:00:14.218Z,21.02
2022-11-05T08:02:42.196Z,22.98
2022-11-05T08:05:09.591Z,21.35
2022-11-05T08:07:36.455Z,24.08
2022-11-05T08:10:04.245Z,21.70
2022-11-05T08:12:32.226Z,18.90
2022-11-05T08:14:58.975Z,20.60
2022-11-05T08:17:25.708Z,15.63
2022-11-05T08:19:52.459Z,24.23
2022-11-05T08:22:19.054Z,20.08
2022-11-05T08:24:45.673Z,19.38
2022-11-05T08:27:12.758Z,23.25
2022-11-05T08:29:39.349Z,25.58
2022-11-05T08:32:05.930Z,19.25
2022-11-05T08:34:32.570Z,20.52
2022-11-05T08:37:01.450Z,21.63
2022-11-05T08:39:28.052Z,29.50
2022-11-05T08:41:54.769Z,21.52
2022-11-05T08:44:21.343Z,17.88
2022-11-05T08:46:48.208Z,21.33
2022-11-05T08:49:14.791Z,26.67
2022-11-05T08:51:41.510Z,14.45
2022-11-05T08:54:08.098Z,21.13
2022-11-05T08:56:34.863Z,16.02
2022-11-05T08:59:01.500Z,17.98
2022-11-05T09:01:28.188Z,25.80
2022-11-05T09:03:54.966Z,25.90
2022-11-05T09:06:21.847Z,30.10
2022-11-05T09:08:48.527Z,16.40
2022-11-05T09:11:15.163Z,21.63
2022-11-05T09:13:41.898Z,17.77
2022-11-05T09:16:22.398Z,19.63
2022-11-05T09:18:50.134Z,22.17
2022-11-05T09:21:17.652Z,17.92
2022-11-05T09:23:45.291Z,20.45
2022-11-05T09:26:13.453Z,19.23
2022-11-05T09:28:40.156Z,21.27
2022-11-05T09:31:08.899Z,15.75
2022-11-05T09:33:37.208Z,18.85
2022-11-05T09:36:04.864Z,19.42
2022-11-05T09:38:34.850Z,26.10
2022-11-05T09:41:17.163Z,16.30
2022-11-05T09:43:51.500Z,17.25
2022-11-05T09:46:56.519Z,21.27
2022-11-05T09:49:40.018Z,20.02
2022-11-05T09:52:13.244Z,19.95
2022-11-05T09:54:40.222Z,23.35
2022-11-05T09:57:11.646Z,16.70
2022-11-05T09:59:47.090Z,17.92
2022-11-05T10:02:20.770Z,20.33
2022-11-05T10:04:51.014Z,19.63
2022-11-05T10:07:23.032Z,19.02
2022-11-05T10:10:01.839Z,19.17
2022-11-05T10:12:42.024Z,20.00
2022-11-05T10:15:17.909Z,13.38
2022-11-05T10:18:16.886Z,21.23
2022-11-05T10:20:44.549Z,20.08
2022-11-05T10:23:20.047Z,21.23
2022-11-05T10:26:01.547Z,19.67
2022-11-05T10:28:30.698Z,20.65
2022-11-05T10:31:03.698Z,15.52
2022-11-05T10:33:54.219Z,19.75
2022-11-05T10:36:32.867Z,17.27
2022-11-05T10:39:12.441Z,22.10
2022-11-05T10:42:15.798Z,18.73
2022-11-05T10:45:14.398Z,18.42
2022-11-05T10:47:46.905Z,17.05
2022-11-05T10:50:18.568Z,20.38
2022-11-05T10:53:02.417Z,16.80
2022-11-05T10:55:32.710Z,11.98
2022-11-05T10:58:17.407Z,13.05
2022-11-05T11:00:46.530Z,14.55
2022-11-05T11:03:32.206Z,14.48
2022-11-05T11:06:04.897Z,21.45
2022-11-05T11:08:35.606Z,19.95
2022-11-05T11:11:10.271Z,12.05
2022-11-05T11:13:58.935Z,14.80
2022-11-05T11:16:27.898Z,19.73
2022-11-05T11:19:00.881Z,19.98
2022-11-05T11:21:29.780Z,27.10
2022-11-05T11:24:03.556Z,26.92
2022-11-05T11:26:33.763Z,17.10
2022-11-05T11:29:07.411Z,15.02
2022-11-05T11:31:38.358Z,19.65
2022-11-05T11:34:07.618Z,13.32
2022-11-05T11:36:46.898Z,12.88
2022-11-05T11:39:22.316Z,15.27
2022-11-05T11:41:54.881Z,13.32
2022-11-05T11:44:27.194Z,20.50
2022-11-05T11:46:58.014Z,16.00
2022-11-05T11:49:30.600Z,18.45
2022-11-05T11:52:04.780Z,16.88
2022-11-05T11:56:59.877Z,16.30
2022-11-05T11:59:53.777Z,14.65
2022-11-05T12:02:27.422Z,13.95
2022-11-05T12:05:04.385Z,14.73
2022-11-05T12:07:49.694Z,13.75
2022-11-05T12:10:35.545Z,15.57
2022-11-05T12:13:44.145Z,18.60
2022-11-05T12:16:22.584Z,8.63
2022-11-05T12:19:03.375Z,13.55
2022-11-05T12:21:59.192Z,16.63
2022-11-05T12:25:08.751Z,11.85
2022-11-05T12:28:01.378Z,12.23
2022-11-05T12:30:38.946Z,16.42
2022-11-05T12:33:40.898Z,14.98
2022-11-05T12:36:34.064Z,8.95
2022-11-05T12:39:20.239Z,13.95
2022-11-05T12:42:01.883Z,11.32
2022-11-05T12:45:01.497Z,12.10
2022-11-05T12:47:47.025Z,8.77
2022-11-05T12:50:33.451Z,8.27
2022-11-05T12:53:28.235Z,10.15
2022-11-05T12:58:37.116Z,8.80
2022-11-05T13:01:17.473Z,11.88
2022-11-05T13:03:52.121Z,12.38
2022-11-05T13:06:27.725Z,8.10
2022-11-05T13:09:12.847Z,8.35
2022-11-05T13:11:51.786Z,13.05
2022-11-05T13:14:26.926Z,6.70
2022-11-05T13:17:02.371Z,10.90
2022-11-05T13:19:34.802Z,9.20
2022-11-05T13:22:13.253Z,7.50
2022-11-05T13:24:50.896Z,9.95
2022-11-05T13:27:50.446Z,6.97
2022-11-05T13:30:22.986Z,5.57
2022-11-05T13:32:58.070Z,7.97
2022-11-05T13:35:37.379Z,11.30
2022-11-05T13:38:26.043Z,12.48
2022-11-05T13:41:14.303Z,7.90
2022-11-05T13:43:40.930Z,12.38
2022-11-05T13:46:49.380Z,12.98
2022-11-05T13:49:30.523Z,9.93
2022-11-05T13:52:28.037Z,12.90
2022-11-05T13:55:21.777Z,9.00
2022-11-05T13:58:26.562Z,6.65
2022-11-05T14:05:01.022Z,10.70
2022-11-05T14:07:31.535Z,9.40
2022-11-05T14:10:14.231Z,14.25
2022-11-05T14:12:41.419Z,7.93
2022-11-05T14:15:36.524Z,7.38
2022-11-05T14:18:06.158Z,9.10
2022-11-05T14:20:32.673Z,6.97
2022-11-05T14:23:17.766Z,10.52
2022-11-05T14:25:44.331Z,10.02
2022-11-05T14:28:35.032Z,8.70
2022-11-05T14:31:31.416Z,9.23
2022-11-05T14:34:10.954Z,9.15
2022-11-05T14:36:39.601Z,5.40
2022-11-05T14:39:25.163Z,16.98
2022-11-05T14:42:03.407Z,8.85
2022-11-05T14:44:35.350Z,11.88
2022-11-05T14:47:05.253Z,7.72
2022-11-05T14:49:47.743Z,13.10
2022-11-05T14:52:16.777Z,7.95
2022-11-05T14:54:52.574Z,18.38
2022-11-05T14:57:41.906Z,9.90
2022-11-05T15:00:32.302Z,11.38
2022-11-05T15:03:04.326Z,8.98
2022-11-05T15:05:38.685Z,9.50
2022-11-05T15:08:26.247Z,11.15
2022-11-05T15:11:06.534Z,5.95
2022-11-05T15:13:38.490Z,16.27
2022-11-05T15:16:06.932Z,6.45
2022-11-05T15:18:43.735Z,12.85
2022-11-05T15:21:15.060Z,17.88
2022-11-05T15:23:43.982Z,13.85
2022-11-05T15:26:22.791Z,9.88
2022-11-05T15:28:54.137Z,12.05
2022-11-05T15:31:28.527Z,13.75
2022-11-05T15:34:20.852Z,11.88
2022-11-05T15:37:00.127Z,9.25
2022-11-05T15:39:32.789Z,12.93
2022-11-05T15:42:04.752Z,12.43
2022-11-05T15:44:39.582Z,13.30
2022-11-05T15:47:24.860Z,9.88
2022-11-05T15:49:59.450Z,13.25
2022-11-05T15:52:37.273Z,14.50
2022-11-05T15:55:12.878Z,7.85
2022-11-05T15:57:56.724Z,9.50
2022-11-05T16:00:26.017Z,9.25
2022-11-05T16:02:57.128Z,6.32
2022-11-05T16:05:26.982Z,11.48
2022-11-05T16:07:53.841Z,12.15
2022-11-05T16:10:29.727Z,12.80
2022-11-05T16:12:56.671Z,11.48
2022-11-05T16:15:26.212Z,11.45
2022-11-05T16:17:58.505Z,9.15
2022-11-05T16:20:36.139Z,10.15
2022-11-05T16:23:06.028Z,11.35
2022-11-05T16:25:41.446Z,7.80
2022-11-05T16:28:24.345Z,7.20
2022-11-05T16:31:02.539Z,9.90
2022-11-05T16:33:40.117Z,10.40
2022-11-05T16:36:08.315Z,7.85
2022-11-05T16:38:34.992Z,9.77
2022-11-05T16:41:01.606Z,7.18
2022-11-05T16:43:28.311Z,9.10
2022-11-05T16:45:59.249Z,12.20
2022-11-05T16:48:27.169Z,7.55
2022-11-05T16:50:54.145Z,8.32
2022-11-05T16:53:20.846Z,16.58
2022-11-05T16:55:47.781Z,11.82
2022-11-05T16:58:23.066Z,8.85
2022-11-05T17:00:51.782Z,21.45
2022-11-05T17:03:18.935Z,10.43
2022-11-05T17:05:45.670Z,8.38
2022-11-05T17:08:12.565Z,9.02
2022-11-05T17:10:39.286Z,14.23
2022-11-05T17:13:05.902Z,9.32
2022-11-05T17:15:35.466Z,7.85
2022-11-05T17:18:03.763Z,8.35
2022-11-05T17:20:40.898Z,12.02
2022-11-05T17:23:13.202Z,8.73
2022-11-05T17:25:41.764Z,8.57
2022-11-05T17:28:09.912Z,12.35
2022-11-05T17:30:38.601Z,10.13
2022-11-05T17:33:07.027Z,11.52
2022-11-05T17:35:33.740Z,19.42
2022-11-05T17:38:00.541Z,19.52
2022-11-05T17:40:28.335Z,21.95
2022-11-05T17:42:54.950Z,27.38
2022-11-05T17:45:21.770Z,22.98
2022-11-05T17:47:48.380Z,25.05
2022-11-05T17:50:16.064Z,22.40
2022-11-05T17:52:43.401Z,17.70
2022-11-05T17:55:17.438Z,21.73
2022-11-05T17:57:49.789Z,26.48
2022-11-05T18:00:19.698Z,19.63
2022-11-05T18:02:48.318Z,13.63
2022-11-05T18:05:16.336Z,14.38
2022-11-05T18:07:43.757Z,10.07
2022-11-05T18:10:10.545Z,7.82
2022-11-05T18:12:37.224Z,12.70
2022-11-05T18:15:04.688Z,14.05
2022-11-05T18:17:31.337Z,10.57
2022-11-05T18:19:58.353Z,13.60
2022-11-05T18:22:26.544Z,10.60
2022-11-05T18:24:54.337Z,10.48
2022-11-05T18:27:24.395Z,10.38
2022-11-05T18:29:51.213Z,11.15
2022-11-05T18:32:17.918Z,14.52
2022-11-05T18:34:44.693Z,18.20
2022-11-05T18:37:11.434Z,10.45
2022-11-05T18:39:38.370Z,8.68
2022-11-05T18:42:05.079Z,12.25
2022-11-05T18:44:37.837Z,9.55
2022-11-05T18:47:06.757Z,12.15
2022-11-05T18:49:33.382Z,6.65
2022-11-05T18:52:00.032Z,9.77
2022-11-05T18:54:26.779Z,11.93
2022-11-05T18:56:53.424Z,9.93
2022-11-05T18:59:39.095Z,7.85
2022-11-05T19:02:07.803Z,9.18
2022-11-05T19:04:38.394Z,10.43
2022-11-05T19:07:06.287Z,8.10
2022-11-05T19:09:37.816Z,14.63
2022-11-05T19:12:06.286Z,6.82
2022-11-05T19:14:33.305Z,12.40
2022-11-05T19:17:00.524Z,13.45
2022-11-05T19:19:27.677Z,18.75
2022-11-05T19:21:54.340Z,9.10
2022-11-05T19:24:20.919Z,14.30
2022-11-05T19:26:47.998Z,10.45
2022-11-05T19:29:14.621Z,11.05
2022-11-05T19:31:41.283Z,13.25
2022-11-05T19:34:08.232Z,8.13
2022-11-05T19:36:34.987Z,9.73
2022-11-05T19:39:06.282Z,11.05
2022-11-05T19:41:33.004Z,10.80
2022-11-05T19:44:01.685Z,10.52
2022-11-05T19:46:29.703Z,17.23
2022-11-05T19:48:57.339Z,14.80
2022-11-05T19:51:26.519Z,14.45
2022-11-05T19:53:54.994Z,15.90
2022-11-05T19:56:27.578Z,16.75
2022-11-05T19:58:54.437Z,10.82
2022-11-05T20:01:23.728Z,14.35
2022-11-05T20:03:51.295Z,11.95
2022-11-05T20:06:21.092Z,9.23
2022-11-05T20:09:15.269Z,13.02
2022-11-05T20:11:39.207Z,26.08
2022-11-05T20:14:07.263Z,17.73
2022-11-05T20:16:38.129Z,19.70
2022-11-05T20:19:06.950Z,16.80
2022-11-05T20:21:34.557Z,12.43
2022-11-05T20:24:01.578Z,13.02
2022-11-05T20:26:28.781Z,12.32
2022-11-05T20:28:55.652Z,7.50
2022-11-05T20:31:22.743Z,9.38
2022-11-05T20:33:49.519Z,16.33
2022-11-05T20:36:19.641Z,13.90
2022-11-05T20:38:51.351Z,14.20
2022-11-05T20:41:18.585Z,11.45
2022-11-05T20:43:46.780Z,15.48
2022-11-05T20:46:15.648Z,12.55
2022-11-05T20:48:42.985Z,11.88
2022-11-05T20:51:12.641Z,11.02
2022-11-05T20:53:39.459Z,11.32
2022-11-05T20:56:10.205Z,13.20
2022-11-05T20:58:38.040Z,11.30
2022-11-05T21:01:05.702Z,11.98
2022-11-05T21:03:32.892Z,13.68
2022-11-05T21:06:04.080Z,14.77
2022-11-05T21:08:31.019Z,9.80
2022-11-05T21:10:58.188Z,12.82
2022-11-05T21:13:25.483Z,13.05
2022-11-05T21:15:54.600Z,15.98
2022-11-05T21:18:23.454Z,10.05
2022-11-05T21:20:50.643Z,16.67
2022-11-05T21:23:17.854Z,7.97
2022-11-05T21:25:44.866Z,9.95
2022-11-05T21:28:13.486Z,13.95
2022-11-05T21:30:44.864Z,13.52
2022-11-05T21:33:13.405Z,11.60
2022-11-05T21:35:44.959Z,16.45
2022-11-05T21:38:13.806Z,15.13
2022-11-05T21:40:41.019Z,12.15
2022-11-05T21:43:08.069Z,10.80
2022-11-05T21:45:35.081Z,14.23
2022-11-05T21:48:01.848Z,10.60
2022-11-05T21:50:46.970Z,10.45
2022-11-05T21:53:33.767Z,14.48
2022-11-05T21:56:19.821Z,15.63
2022-11-05T21:59:05.103Z,8.90
2022-11-05T22:01:31.859Z,12.95
2022-11-05T22:04:02.835Z,14.85
2022-11-05T22:06:32.740Z,12.98
2022-11-05T22:08:59.376Z,12.82
2022-11-05T22:11:25.991Z,13.07
2022-11-05T22:13:53.305Z,11.85
2022-11-05T22:16:19.910Z,10.75
2022-11-05T22:18:46.507Z,12.35
2022-11-05T22:21:19.412Z,9.18
2022-11-05T22:23:46.472Z,12.25
2022-11-05T22:26:13.108Z,10.80
2022-11-05T22:28:39.699Z,13.90
2022-11-05T22:31:15.468Z,9.05
2022-11-05T22:33:42.870Z,12.10
2022-11-05T22:36:10.652Z,10.80
2022-11-05T22:38:37.355Z,9.88
2022-11-05T22:41:12.240Z,9.48
2022-11-05T22:43:39.111Z,11.35
2022-11-05T22:46:08.558Z,10.52
2022-11-05T22:48:36.256Z,11.55
2022-11-05T22:51:11.072Z,10.55
2022-11-05T22:53:38.879Z,10.07
2022-11-05T22:56:07.910Z,12.90
2022-11-05T22:58:34.576Z,9.40
2022-11-05T23:01:02.069Z,11.38
2022-11-05T23:03:30.055Z,9.52
2022-11-05T23:06:01.713Z,9.82
2022-11-05T23:08:46.856Z,13.85
2022-11-05T23:11:38.518Z,11.27
2022-11-05T23:14:07.490Z,12.60
2022-11-05T23:16:53.252Z,13.88
2022-11-05T23:19:39.383Z,9.40
2022-11-05T23:22:30.087Z,8.48
2022-11-05T23:24:56.867Z,8.73
2022-11-05T23:27:23.899Z,8.88
2022-11-05T23:29:50.531Z,8.02
2022-11-05T23:32:26.178Z,7.50
2022-11-05T23:34:54.170Z,9.57
2022-11-05T23:37:40.755Z,11.77
2022-11-05T23:40:10.535Z,9.50
2022-11-05T23:42:55.611Z,12.10
2022-11-05T23:45:41.170Z,12.68
2022-11-05T23:48:34.918Z,24.85
2022-11-05T23:51:08.877Z,19.48
2022-11-05T23:53:37.859Z,16.45
2022-11-05T23:56:08.319Z,22.73
2022-11-05T23:58:36.346Z,27.20
